Terminal Aerodrome Forecast
Issued by NWS Portland, ME

Current Version | Previous Version | Text Only | Print | Product List | Glossary On
Versions: 1 2 3 4 5 6 7 8 9 10 11 12 13 14 15 16 17 18 19 20 21 22 23 24 25
000 FTUS41 KGYX 220918 AAA TAFCON TAF AMD KCON 220918Z 2209/2306 00000KT P6SM OVC050 FM222000 04003KT P6SM BKN025 OVC040 FM230000 03004KT 6SM -DZ OVC015=

USA.gov is the U.S. government's official web portal to all federal, state and local government web resources and services.